createdAt,value
2023-02-11T00:00:03.645Z,-0.83
2023-02-11T00:02:31.876Z,-0.91
2023-02-11T00:04:58.816Z,-1.21
2023-02-11T00:07:25.580Z,-1.40
2023-02-11T00:09:52.408Z,-1.38
2023-02-11T00:12:20.546Z,-1.59
2023-02-11T00:14:47.458Z,-1.54
2023-02-11T00:17:14.534Z,-1.33
2023-02-11T00:19:41.499Z,-1.64
2023-02-11T00:22:08.343Z,-1.67
2023-02-11T00:24:36.113Z,-1.45
2023-02-11T00:27:02.792Z,-1.40
2023-02-11T00:29:30.978Z,-1.50
2023-02-11T00:31:57.720Z,-1.67
2023-02-11T00:34:25.081Z,-1.47
2023-02-11T00:36:51.740Z,-1.32
2023-02-11T00:39:18.389Z,-1.47
2023-02-11T00:41:45.064Z,-1.62
2023-02-11T00:44:11.784Z,-1.85
2023-02-11T00:46:39.889Z,-1.85
2023-02-11T00:49:06.789Z,-1.83
2023-02-11T00:51:33.473Z,-1.68
2023-02-11T00:54:00.242Z,-1.59
2023-02-11T00:56:27.049Z,-1.80
2023-02-11T00:58:53.847Z,-1.67
2023-02-11T01:01:20.851Z,-1.70
2023-02-11T01:03:49.103Z,-1.83
2023-02-11T01:06:16.465Z,-1.91
2023-02-11T01:08:43.688Z,-1.70
2023-02-11T01:11:14.740Z,-1.81
2023-02-11T01:13:42.235Z,-2.02
2023-02-11T01:16:10.843Z,-1.74
2023-02-11T01:18:38.561Z,-1.63
2023-02-11T01:21:06.742Z,-1.73
2023-02-11T01:23:33.648Z,-1.58
2023-02-11T01:26:00.328Z,-1.65
2023-02-11T01:28:28.795Z,-2.03
2023-02-11T01:30:56.118Z,-1.77
2023-02-11T01:33:23.283Z,-1.67
2023-02-11T01:35:50.638Z,-1.63
2023-02-11T01:38:21.185Z,-1.89
2023-02-11T01:40:49.737Z,-2.06
2023-02-11T01:43:16.712Z,-2.10
2023-02-11T01:46:12.608Z,-1.98
2023-02-11T01:48:43.216Z,-1.99
2023-02-11T01:51:16.546Z,-1.95
2023-02-11T01:53:46.499Z,-1.95
2023-02-11T01:56:13.158Z,-1.75
2023-02-11T01:58:42.747Z,-1.91
2023-02-11T02:01:11.118Z,-1.69
2023-02-11T02:03:42.381Z,-1.56
2023-02-11T02:06:16.665Z,-1.60
2023-02-11T02:08:51.162Z,-1.77
2023-02-11T02:11:18.190Z,-1.83
2023-02-11T02:13:45.226Z,-1.77
2023-02-11T02:16:13.498Z,-1.66
2023-02-11T02:18:48.290Z,-1.32
2023-02-11T02:22:14.124Z,-1.43
2023-02-11T02:24:59.226Z,-1.58
2023-02-11T02:27:55.329Z,-1.68
2023-02-11T02:31:15.618Z,-1.80
2023-02-11T02:33:51.262Z,-1.82
2023-02-11T02:36:24.080Z,-1.55
2023-02-11T02:38:55.597Z,-1.85
2023-02-11T02:41:27.181Z,-1.70
2023-02-11T02:43:54.485Z,-1.73
2023-02-11T02:46:25.428Z,-1.59
2023-02-11T02:48:54.990Z,-1.86
2023-02-11T02:51:34.174Z,-1.87
2023-02-11T02:54:17.442Z,-1.99
2023-02-11T02:56:48.525Z,-1.61
2023-02-11T02:59:27.367Z,-1.77
2023-02-11T03:02:05.343Z,-1.82
2023-02-11T03:04:38.161Z,-1.77
2023-02-11T03:07:14.256Z,-1.85
2023-02-11T03:09:45.934Z,-1.80
2023-02-11T03:12:14.590Z,-1.80
2023-02-11T03:14:41.623Z,-1.85
2023-02-11T03:17:10.045Z,-1.77
2023-02-11T03:19:41.257Z,-1.71
2023-02-11T03:22:13.178Z,-1.78
2023-02-11T03:24:42.020Z,-1.70
2023-02-11T03:27:15.927Z,-1.59
2023-02-11T03:29:49.665Z,-1.80
2023-02-11T03:32:23.412Z,-1.87
2023-02-11T03:34:56.409Z,-1.71
2023-02-11T03:37:28.926Z,-1.87
2023-02-11T03:40:00.312Z,-2.00
2023-02-11T03:42:32.055Z,-1.94
2023-02-11T03:45:03.680Z,-1.82
2023-02-11T03:47:33.909Z,-1.85
2023-02-11T03:50:05.036Z,-1.81
2023-02-11T03:52:34.159Z,-1.97
2023-02-11T03:55:03.203Z,-1.85
2023-02-11T03:57:30.075Z,-2.11
2023-02-11T03:59:58.393Z,-2.01
2023-02-11T04:02:29.301Z,-1.96
2023-02-11T04:04:56.497Z,-2.09
2023-02-11T04:07:24.920Z,-1.77
2023-02-11T04:09:52.329Z,-1.96
2023-02-11T04:12:19.205Z,-2.05
2023-02-11T04:14:46.015Z,-2.00
2023-02-11T04:17:13.269Z,-2.07
2023-02-11T04:19:39.984Z,-2.07
2023-02-11T04:22:07.423Z,-2.04
2023-02-11T04:24:35.555Z,-2.08
2023-02-11T04:27:02.490Z,-2.21
2023-02-11T04:29:29.138Z,-2.31
2023-02-11T04:31:55.918Z,-2.34
2023-02-11T04:34:22.777Z,-2.45
2023-02-11T04:36:49.425Z,-2.51
2023-02-11T04:39:16.171Z,-2.49
2023-02-11T04:41:44.374Z,-2.46
2023-02-11T04:44:11.155Z,-2.37
2023-02-11T04:46:37.843Z,-2.35
2023-02-11T04:49:04.498Z,-2.22
2023-02-11T04:51:31.187Z,-2.08
2023-02-11T04:53:57.875Z,-2.32
2023-02-11T04:56:24.545Z,-2.16
2023-02-11T04:58:52.605Z,-2.21
2023-02-11T05:01:19.380Z,-2.65
2023-02-11T05:03:46.167Z,-2.45
2023-02-11T05:06:13.249Z,-2.37
2023-02-11T05:08:40.009Z,-2.34
2023-02-11T05:11:08.015Z,-2.33
2023-02-11T05:13:34.833Z,-2.28
2023-02-11T05:16:03.100Z,-2.24
2023-02-11T05:18:29.766Z,-2.27
2023-02-11T05:20:56.659Z,-2.43
2023-02-11T05:23:23.471Z,-2.62
2023-02-11T05:25:50.480Z,-2.48
2023-02-11T05:28:17.347Z,-2.53
2023-02-11T05:30:44.118Z,-2.54
2023-02-11T05:33:12.271Z,-2.70
2023-02-11T05:35:38.975Z,-2.74
2023-02-11T05:38:05.640Z,-2.66
2023-02-11T05:40:32.409Z,-2.63
2023-02-11T05:42:59.139Z,-2.75
2023-02-11T05:45:25.866Z,-2.86
2023-02-11T05:47:52.525Z,-2.88
2023-02-11T05:50:20.968Z,-2.79
2023-02-11T05:52:47.666Z,-2.91
2023-02-11T05:55:14.615Z,-2.97
2023-02-11T05:57:41.338Z,-2.86
2023-02-11T06:00:09.384Z,-2.99
2023-02-11T06:02:36.193Z,-3.01
2023-02-11T06:05:03.173Z,-2.86
2023-02-11T06:07:31.217Z,-2.70
2023-02-11T06:09:57.967Z,-2.59
2023-02-11T06:12:24.721Z,-2.61
2023-02-11T06:14:51.398Z,-2.72
2023-02-11T06:17:18.162Z,-2.63
2023-02-11T06:19:44.858Z,-2.79
2023-02-11T06:22:11.617Z,-2.74
2023-02-11T06:24:58.957Z,-2.73
2023-02-11T06:27:26.333Z,-2.64
2023-02-11T06:29:52.989Z,-2.74
2023-02-11T06:32:39.498Z,-2.98
2023-02-11T06:35:09.986Z,-2.72
2023-02-11T06:37:38.133Z,-2.66
2023-02-11T06:40:07.357Z,-2.51
2023-02-11T06:42:34.102Z,-2.40
2023-02-11T06:45:00.740Z,-2.47
2023-02-11T06:47:27.388Z,-2.30
2023-02-11T06:49:54.057Z,-2.48
2023-02-11T06:52:20.757Z,-2.45
2023-02-11T06:54:47.425Z,-2.32
2023-02-11T06:57:15.465Z,-2.28
2023-02-11T06:59:42.292Z,-2.27
2023-02-11T07:02:09.915Z,-2.26
2023-02-11T07:04:36.598Z,-2.06
2023-02-11T07:07:03.323Z,-1.95
2023-02-11T07:09:30.011Z,-1.97
2023-02-11T07:11:56.695Z,-1.96
2023-02-11T07:14:24.986Z,-1.73
2023-02-11T07:16:51.699Z,-1.66
2023-02-11T07:19:18.439Z,-1.42
2023-02-11T07:21:45.134Z,-1.41
2023-02-11T07:24:12.910Z,-1.49
2023-02-11T07:26:41.119Z,-1.44
2023-02-11T07:29:07.777Z,-1.40
2023-02-11T07:31:36.037Z,-1.22
2023-02-11T07:34:02.924Z,-1.27
2023-02-11T07:36:30.741Z,-1.13
2023-02-11T07:38:57.430Z,-1.29
2023-02-11T07:41:25.712Z,-0.97
2023-02-11T07:43:52.482Z,-0.90
2023-02-11T07:46:21.512Z,-1.16
2023-02-11T07:48:50.043Z,-1.21
2023-02-11T07:51:18.953Z,-1.01
2023-02-11T07:53:46.252Z,-0.86
2023-02-11T07:56:14.607Z,-0.79
2023-02-11T07:58:41.654Z,-0.77
2023-02-11T08:01:10.249Z,-0.96
2023-02-11T08:03:38.101Z,-0.62
2023-02-11T08:06:08.145Z,-0.55
2023-02-11T08:08:34.888Z,-0.41
2023-02-11T08:11:06.595Z,-0.32
2023-02-11T08:13:33.494Z,-0.09
2023-02-11T08:16:00.207Z,-0.11
2023-02-11T08:18:26.873Z,-0.01
2023-02-11T08:20:53.555Z,0.26
2023-02-11T08:23:21.619Z,0.24
2023-02-11T08:25:48.303Z,0.39
2023-02-11T08:28:15.056Z,0.39
2023-02-11T08:30:41.767Z,0.59
2023-02-11T08:33:08.467Z,0.77
2023-02-11T08:35:35.572Z,1.18
2023-02-11T08:38:02.226Z,0.95
2023-02-11T08:40:30.295Z,1.19
2023-02-11T08:42:57.222Z,1.38
2023-02-11T08:45:23.868Z,1.81
2023-02-11T08:47:50.538Z,1.88
2023-02-11T08:50:17.351Z,2.02
2023-02-11T08:52:44.057Z,2.31
2023-02-11T08:55:11.154Z,2.35
2023-02-11T08:57:39.259Z,2.45
2023-02-11T09:00:07.651Z,2.38
2023-02-11T09:02:34.432Z,2.43
2023-02-11T09:05:01.114Z,2.46
2023-02-11T09:07:28.503Z,2.47
2023-02-11T09:09:55.164Z,2.38
2023-02-11T09:12:21.853Z,2.47
2023-02-11T09:14:49.915Z,2.56
2023-02-11T09:17:16.574Z,2.77
2023-02-11T09:19:43.217Z,2.65
2023-02-11T09:22:09.981Z,2.69
2023-02-11T09:24:36.730Z,2.82
2023-02-11T09:27:03.558Z,2.88
2023-02-11T09:29:30.310Z,2.83
2023-02-11T09:31:58.460Z,2.91
2023-02-11T09:34:25.156Z,2.94
2023-02-11T09:36:51.791Z,3.07
2023-02-11T09:39:19.350Z,3.06
2023-02-11T09:42:24.725Z,3.23
2023-02-11T09:44:52.368Z,3.29
2023-02-11T09:47:26.839Z,3.37
2023-02-11T09:50:00.194Z,3.27
2023-02-11T09:52:36.127Z,3.24
2023-02-11T09:55:05.237Z,3.16
2023-02-11T09:57:35.011Z,3.10
2023-02-11T10:00:15.980Z,3.07
2023-02-11T10:02:57.255Z,3.19
2023-02-11T10:05:36.788Z,3.14
2023-02-11T10:08:11.768Z,3.26
2023-02-11T10:10:50.449Z,3.29
2023-02-11T10:13:42.535Z,3.35
2023-02-11T10:16:21.756Z,3.55
2023-02-11T10:19:17.492Z,3.71
2023-02-11T10:21:57.450Z,3.83
2023-02-11T10:24:25.049Z,3.87
2023-02-11T10:26:52.381Z,3.91
2023-02-11T10:29:33.529Z,3.84
2023-02-11T10:32:04.155Z,4.12
2023-02-11T10:34:32.320Z,4.37
2023-02-11T10:36:58.937Z,4.42
2023-02-11T10:39:27.742Z,4.60
2023-02-11T10:41:57.768Z,4.76
2023-02-11T10:44:28.852Z,4.86
2023-02-11T10:46:57.374Z,4.91
2023-02-11T10:49:38.862Z,5.23
2023-02-11T10:52:27.786Z,5.32
2023-02-11T10:55:00.579Z,5.21
2023-02-11T10:57:31.230Z,5.18
2023-02-11T11:00:00.345Z,5.42
2023-02-11T11:02:29.983Z,5.60
2023-02-11T11:04:59.164Z,5.75
2023-02-11T11:07:28.144Z,5.50
2023-02-11T11:09:58.378Z,5.58
2023-02-11T11:12:28.528Z,5.69
2023-02-11T11:14:56.301Z,5.92
2023-02-11T11:17:22.989Z,5.80
2023-02-11T11:19:49.597Z,6.03
2023-02-11T11:22:22.697Z,6.10
2023-02-11T11:24:50.226Z,6.16
2023-02-11T11:27:19.414Z,5.84
2023-02-11T11:29:49.422Z,5.97
2023-02-11T11:32:20.782Z,5.74
2023-02-11T11:34:51.306Z,5.80
2023-02-11T11:37:26.032Z,5.69
2023-02-11T11:39:57.457Z,5.65
2023-02-11T11:42:28.475Z,5.37
2023-02-11T11:44:59.254Z,5.42
2023-02-11T11:47:33.964Z,5.36
2023-02-11T11:50:26.851Z,5.29
2023-02-11T11:53:04.015Z,5.29
2023-02-11T11:55:35.248Z,5.35
2023-02-11T11:58:02.074Z,5.27
2023-02-11T12:00:37.744Z,5.30
2023-02-11T12:03:29.477Z,5.24
2023-02-11T12:06:11.635Z,5.26
2023-02-11T12:08:49.351Z,5.23
2023-02-11T12:11:26.024Z,5.17
2023-02-11T12:14:16.930Z,5.16
2023-02-11T12:16:55.553Z,5.25
2023-02-11T12:20:01.872Z,5.31
2023-02-11T12:22:41.207Z,5.44
2023-02-11T12:25:23.786Z,5.57
2023-02-11T12:27:56.734Z,5.69
2023-02-11T12:30:41.758Z,5.85
2023-02-11T12:33:19.832Z,5.80
2023-02-11T12:35:56.341Z,6.04
2023-02-11T12:38:38.974Z,6.12
2023-02-11T12:41:23.454Z,6.16
2023-02-11T12:43:50.612Z,6.33
2023-02-11T12:46:34.388Z,6.43
2023-02-11T12:49:24.269Z,6.39
2023-02-11T12:52:13.936Z,6.46
2023-02-11T12:54:42.842Z,6.42
2023-02-11T12:57:18.100Z,6.39
2023-02-11T12:59:51.920Z,6.22
2023-02-11T13:02:28.145Z,6.19
2023-02-11T13:05:00.157Z,5.90
2023-02-11T13:07:31.605Z,5.94
2023-02-11T13:10:01.799Z,5.87
2023-02-11T13:12:33.623Z,5.88
2023-02-11T13:15:06.343Z,5.86
2023-02-11T13:17:37.982Z,5.94
2023-02-11T13:20:15.075Z,6.08
2023-02-11T13:22:46.858Z,5.96
2023-02-11T13:25:22.482Z,6.07
2023-02-11T13:27:57.801Z,6.33
2023-02-11T13:30:28.634Z,6.52
2023-02-11T13:33:16.315Z,6.31
2023-02-11T13:35:45.904Z,6.16
2023-02-11T13:38:18.199Z,6.23
2023-02-11T13:40:45.699Z,6.17
2023-02-11T13:43:22.434Z,6.06
2023-02-11T13:45:50.330Z,6.30
2023-02-11T13:48:22.793Z,6.14
2023-02-11T13:50:52.110Z,6.07
2023-02-11T13:53:20.265Z,6.01
2023-02-11T13:55:49.692Z,5.99
2023-02-11T13:58:32.935Z,6.13
2023-02-11T14:00:59.619Z,6.35
2023-02-11T14:03:32.309Z,6.34
2023-02-11T14:06:17.195Z,6.34
2023-02-11T14:09:00.125Z,6.49
2023-02-11T14:11:48.902Z,6.52
2023-02-11T14:14:22.306Z,6.50
2023-02-11T14:17:29.435Z,6.40
2023-02-11T14:19:56.194Z,6.25
2023-02-11T14:22:26.270Z,6.37
2023-02-11T14:24:56.379Z,6.19
2023-02-11T14:27:33.444Z,6.28
2023-02-11T14:30:13.492Z,6.16
2023-02-11T14:32:58.190Z,6.24
2023-02-11T14:35:33.479Z,6.28
2023-02-11T14:38:10.000Z,6.30
2023-02-11T14:40:46.433Z,6.20
2023-02-11T14:43:18.692Z,6.25
2023-02-11T14:45:51.686Z,6.34
2023-02-11T14:48:20.141Z,6.32
2023-02-11T14:50:51.297Z,6.26
2023-02-11T14:53:21.392Z,6.38
2023-02-11T14:55:49.693Z,6.29
2023-02-11T14:58:18.517Z,6.48
2023-02-11T15:00:52.902Z,6.38
2023-02-11T15:03:34.444Z,6.39
2023-02-11T15:06:05.593Z,6.48
2023-02-11T15:08:34.644Z,6.57
2023-02-11T15:11:03.663Z,6.48
2023-02-11T15:13:31.813Z,6.61
2023-02-11T15:16:05.162Z,6.61
2023-02-11T15:18:35.367Z,6.73
2023-02-11T15:21:02.197Z,6.55
2023-02-11T15:23:30.587Z,6.43
2023-02-11T15:25:57.502Z,6.45
2023-02-11T15:28:26.831Z,6.59
2023-02-11T15:30:58.850Z,6.45
2023-02-11T15:33:27.122Z,6.34
2023-02-11T15:35:53.768Z,6.36
2023-02-11T15:38:20.406Z,6.28
2023-02-11T15:40:56.478Z,6.25
2023-02-11T15:43:23.221Z,6.19
2023-02-11T15:45:57.540Z,6.19
2023-02-11T15:48:27.851Z,6.15
2023-02-11T15:50:58.699Z,6.13
2023-02-11T15:53:29.949Z,6.06
2023-02-11T15:56:07.573Z,6.10
2023-02-11T15:58:37.084Z,6.15
2023-02-11T16:01:04.410Z,6.14
2023-02-11T16:03:31.323Z,6.15
2023-02-11T16:06:16.521Z,6.04
2023-02-11T16:08:55.564Z,5.90
2023-02-11T16:11:26.159Z,5.92
2023-02-11T16:13:52.809Z,5.84
2023-02-11T16:16:21.849Z,5.96
2023-02-11T16:19:03.326Z,5.90
2023-02-11T16:21:35.857Z,5.61
2023-02-11T16:24:02.817Z,5.59
2023-02-11T16:26:33.933Z,5.60
2023-02-11T16:29:10.473Z,5.73
2023-02-11T16:31:40.054Z,5.63
2023-02-11T16:34:14.035Z,5.64
2023-02-11T16:36:42.538Z,5.70
2023-02-11T16:39:10.311Z,5.70
2023-02-11T16:41:37.019Z,5.59
2023-02-11T16:44:03.812Z,5.52
2023-02-11T16:46:31.786Z,5.41
2023-02-11T16:49:06.175Z,5.45
2023-02-11T16:51:32.824Z,5.69
2023-02-11T16:54:00.795Z,5.64
2023-02-11T16:56:27.465Z,5.62
2023-02-11T16:58:54.122Z,5.53
2023-02-11T17:01:20.870Z,5.47
2023-02-11T17:03:47.990Z,5.44
2023-02-11T17:06:14.889Z,5.42
2023-02-11T17:08:41.533Z,5.26
2023-02-11T17:11:09.631Z,5.27
2023-02-11T17:13:36.276Z,5.24
2023-02-11T17:16:02.993Z,5.03
2023-02-11T17:18:29.692Z,5.05
2023-02-11T17:20:56.332Z,5.05
2023-02-11T17:23:23.025Z,4.91
2023-02-11T17:25:55.476Z,4.82
2023-02-11T17:28:23.581Z,4.66
2023-02-11T17:30:50.308Z,4.87
2023-02-11T17:33:17.130Z,5.00
2023-02-11T17:35:43.778Z,5.20
2023-02-11T17:38:10.436Z,5.20
2023-02-11T17:40:37.204Z,5.09
2023-02-11T17:43:04.524Z,5.06
2023-02-11T17:45:32.721Z,5.17
2023-02-11T17:47:59.477Z,5.28
2023-02-11T17:50:29.176Z,5.10
2023-02-11T17:52:56.700Z,5.03
2023-02-11T17:55:23.360Z,4.88
2023-02-11T17:57:50.021Z,5.03
2023-02-11T18:00:17.340Z,5.19
2023-02-11T18:02:45.388Z,5.19
2023-02-11T18:05:12.130Z,5.09
2023-02-11T18:07:38.802Z,5.06
2023-02-11T18:10:06.614Z,5.01
2023-02-11T18:12:33.264Z,5.00
2023-02-11T18:14:59.970Z,4.74
2023-02-11T18:17:26.639Z,4.95
2023-02-11T18:19:57.557Z,5.02
2023-02-11T18:22:25.015Z,5.01
2023-02-11T18:24:52.379Z,4.96
2023-02-11T18:27:19.168Z,4.99
2023-02-11T18:29:45.809Z,4.83
2023-02-11T18:32:12.703Z,4.89
2023-02-11T18:34:40.087Z,4.97
2023-02-11T18:37:08.378Z,5.07
2023-02-11T18:39:35.060Z,4.95
2023-02-11T18:42:01.708Z,4.85
2023-02-11T18:44:28.557Z,4.83
2023-02-11T18:46:55.257Z,4.82
2023-02-11T18:49:21.906Z,4.91
2023-02-11T18:51:48.658Z,4.80
2023-02-11T18:54:16.717Z,4.90
2023-02-11T18:56:43.433Z,4.78
2023-02-11T18:59:10.066Z,4.80
2023-02-11T19:01:36.799Z,4.73
2023-02-11T19:04:04.841Z,4.75
2023-02-11T19:06:33.911Z,4.18
2023-02-11T19:09:02.383Z,4.21
2023-02-11T19:11:32.236Z,4.27
2023-02-11T19:13:58.811Z,4.29
2023-02-11T19:16:25.459Z,4.59
2023-02-11T19:18:52.166Z,4.48
2023-02-11T19:21:18.839Z,4.69
2023-02-11T19:23:45.522Z,4.75
2023-02-11T19:26:12.168Z,4.75
2023-02-11T19:28:40.294Z,4.85
2023-02-11T19:31:08.635Z,4.82
2023-02-11T19:33:35.655Z,4.75
2023-02-11T19:36:04.349Z,4.48
2023-02-11T19:38:31.124Z,4.46
2023-02-11T19:40:58.251Z,4.49
2023-02-11T19:43:25.115Z,4.52
2023-02-11T19:45:53.540Z,4.71
2023-02-11T19:48:20.357Z,4.60
2023-02-11T19:50:47.132Z,4.73
2023-02-11T19:53:13.737Z,4.75
2023-02-11T19:55:40.428Z,4.60
2023-02-11T19:58:07.166Z,4.82
2023-02-11T20:00:33.806Z,4.77
2023-02-11T20:03:01.935Z,4.66
2023-02-11T20:05:28.685Z,4.67
2023-02-11T20:07:55.310Z,4.57
2023-02-11T20:10:23.252Z,4.48
2023-02-11T20:12:49.901Z,4.52
2023-02-11T20:15:16.558Z,4.43
2023-02-11T20:17:43.250Z,4.43
2023-02-11T20:20:11.953Z,4.43
2023-02-11T20:22:38.562Z,4.35
2023-02-11T20:25:06.118Z,4.21
2023-02-11T20:27:32.769Z,4.45
2023-02-11T20:29:59.400Z,4.41
2023-02-11T20:32:26.072Z,4.53
2023-02-11T20:34:52.737Z,4.47
2023-02-11T20:37:20.798Z,4.29
2023-02-11T20:39:47.424Z,4.39
2023-02-11T20:42:14.324Z,4.36
2023-02-11T20:44:41.279Z,4.42
2023-02-11T20:47:07.944Z,4.34
2023-02-11T20:49:34.656Z,4.36
2023-02-11T20:52:01.284Z,4.39
2023-02-11T20:54:29.400Z,4.28
2023-02-11T20:56:56.192Z,4.17
2023-02-11T20:59:23.037Z,4.19
2023-02-11T21:01:51.472Z,4.18
2023-02-11T21:04:20.256Z,4.23
2023-02-11T21:06:49.425Z,4.11
2023-02-11T21:09:17.813Z,4.16
2023-02-11T21:11:46.347Z,4.07
2023-02-11T21:14:13.390Z,4.10
2023-02-11T21:16:40.416Z,4.11
2023-02-11T21:19:07.711Z,4.16
2023-02-11T21:21:35.456Z,4.24
2023-02-11T21:24:02.130Z,4.22
2023-02-11T21:26:29.024Z,4.15
2023-02-11T21:28:57.183Z,4.17
2023-02-11T21:31:29.628Z,4.03
2023-02-11T21:33:57.007Z,4.07
2023-02-11T21:36:23.902Z,3.96
2023-02-11T21:38:50.553Z,3.92
2023-02-11T21:41:17.713Z,3.94
2023-02-11T21:43:44.677Z,3.95
2023-02-11T21:46:14.839Z,3.98
2023-02-11T21:48:41.960Z,4.05
2023-02-11T21:51:11.236Z,4.10
2023-02-11T21:53:37.877Z,4.27
2023-02-11T21:56:07.172Z,4.18
2023-02-11T21:58:33.818Z,4.22
2023-02-11T22:01:00.599Z,4.16
2023-02-11T22:03:28.673Z,4.27
2023-02-11T22:05:55.763Z,4.28
2023-02-11T22:08:22.590Z,4.19
2023-02-11T22:10:49.268Z,4.23
2023-02-11T22:13:15.948Z,4.20
2023-02-11T22:15:42.553Z,4.34
2023-02-11T22:18:09.241Z,4.37
2023-02-11T22:20:37.293Z,4.34
2023-02-11T22:23:04.013Z,4.22
2023-02-11T22:25:30.628Z,4.29
2023-02-11T22:27:57.330Z,4.07
2023-02-11T22:30:23.998Z,4.00
2023-02-11T22:32:50.650Z,3.92
2023-02-11T22:35:17.347Z,3.92
2023-02-11T22:37:45.360Z,3.79
2023-02-11T22:40:13.315Z,3.87
2023-02-11T22:42:40.005Z,4.03
2023-02-11T22:45:07.695Z,4.09
2023-02-11T22:47:34.324Z,3.90
2023-02-11T22:50:01.004Z,3.91
2023-02-11T22:52:27.647Z,3.79
2023-02-11T22:54:55.686Z,3.81
2023-02-11T22:57:22.341Z,3.64
2023-02-11T22:59:49.029Z,3.49
2023-02-11T23:02:15.773Z,3.49
2023-02-11T23:04:42.634Z,3.46
2023-02-11T23:07:09.310Z,3.57
2023-02-11T23:09:35.981Z,3.48
2023-02-11T23:12:04.537Z,3.43
2023-02-11T23:14:31.462Z,3.44
2023-02-11T23:16:58.204Z,3.51
2023-02-11T23:19:25.069Z,3.48
2023-02-11T23:21:52.022Z,3.37
2023-02-11T23:24:18.637Z,3.23
2023-02-11T23:26:45.513Z,3.22
2023-02-11T23:29:13.999Z,3.35
2023-02-11T23:31:43.146Z,3.23
2023-02-11T23:34:10.182Z,3.23
2023-02-11T23:36:37.458Z,3.08
2023-02-11T23:39:04.778Z,3.03
2023-02-11T23:41:31.556Z,3.08
2023-02-11T23:43:58.359Z,2.85
2023-02-11T23:46:27.582Z,2.73
2023-02-11T23:48:54.326Z,2.90
2023-02-11T23:51:21.182Z,2.93
2023-02-11T23:53:48.144Z,2.94
2023-02-11T23:56:18.731Z,2.84
2023-02-11T23:58:48.110Z,2.75
